sensor_id;sensor_type;location;lat;lon;timestamp;P1;durP1;ratioP1;P2;durP2;ratioP2
15841;SDS011;8021;48.022;11.812;2023-06-10T00:00:00;0.20;;;0.20;;
15841;SDS011;8021;48.022;11.812;2023-06-10T00:02:37;0.20;;;0.20;;
15841;SDS011;8021;48.022;11.812;2023-06-10T00:05:05;0.20;;;0.20;;
15841;SDS011;8021;48.022;11.812;2023-06-10T00:07:34;0.20;;;0.20;;
15841;SDS011;8021;48.022;11.812;2023-06-10T00:10:04;0.20;;;0.20;;
15841;SDS011;8021;48.022;11.812;2023-06-10T00:12:31;0.20;;;0.20;;
15841;SDS011;8021;48.022;11.812;2023-06-10T00:15:05;0.30;;;0.25;;
15841;SDS011;8021;48.022;11.812;2023-06-10T00:17:33;0.30;;;0.20;;
15841;SDS011;8021;48.022;11.812;2023-06-10T00:20:06;0.20;;;0.10;;
15841;SDS011;8021;48.022;11.812;2023-06-10T00:22:35;0.20;;;0.20;;
15841;SDS011;8021;48.022;11.812;2023-06-10T00:25:04;0.25;;;0.25;;
15841;SDS011;8021;48.022;11.812;2023-06-10T00:27:32;0.30;;;0.30;;
15841;SDS011;8021;48.022;11.812;2023-06-10T00:30:02;0.22;;;0.20;;
15841;SDS011;8021;48.022;11.812;2023-06-10T00:32:31;0.20;;;0.20;;
15841;SDS011;8021;48.022;11.812;2023-06-10T00:35:01;0.30;;;0.30;;
15841;SDS011;8021;48.022;11.812;2023-06-10T00:37:30;0.20;;;0.20;;
15841;SDS011;8021;48.022;11.812;2023-06-10T00:39:58;0.20;;;0.20;;
15841;SDS011;8021;48.022;11.812;2023-06-10T00:42:26;0.30;;;0.30;;
15841;SDS011;8021;48.022;11.812;2023-06-10T00:44:53;0.20;;;0.20;;
15841;SDS011;8021;48.022;11.812;2023-06-10T00:47:21;0.20;;;0.20;;
15841;SDS011;8021;48.022;11.812;2023-06-10T00:49:50;0.20;;;0.20;;
15841;SDS011;8021;48.022;11.812;2023-06-10T00:52:18;0.30;;;0.30;;
15841;SDS011;8021;48.022;11.812;2023-06-10T00:54:45;0.20;;;0.20;;
15841;SDS011;8021;48.022;11.812;2023-06-10T00:57:14;0.20;;;0.13;;
15841;SDS011;8021;48.022;11.812;2023-06-10T00:59:41;0.20;;;0.20;;
15841;SDS011;8021;48.022;11.812;2023-06-10T01:02:10;0.30;;;0.20;;
15841;SDS011;8021;48.022;11.812;2023-06-10T01:04:37;0.20;;;0.20;;
15841;SDS011;8021;48.022;11.812;2023-06-10T01:07:08;0.30;;;0.30;;
15841;SDS011;8021;48.022;11.812;2023-06-10T01:09:40;0.20;;;0.20;;
15841;SDS011;8021;48.022;11.812;2023-06-10T01:12:10;0.28;;;0.20;;
15841;SDS011;8021;48.022;11.812;2023-06-10T01:14:39;0.20;;;0.20;;
15841;SDS011;8021;48.022;11.812;2023-06-10T01:17:11;0.20;;;0.20;;
15841;SDS011;8021;48.022;11.812;2023-06-10T01:19:39;0.20;;;0.20;;
15841;SDS011;8021;48.022;11.812;2023-06-10T01:22:11;0.20;;;0.20;;
15841;SDS011;8021;48.022;11.812;2023-06-10T01:24:43;0.20;;;0.20;;
15841;SDS011;8021;48.022;11.812;2023-06-10T01:27:12;0.30;;;0.20;;
15841;SDS011;8021;48.022;11.812;2023-06-10T01:29:41;0.20;;;0.20;;
15841;SDS011;8021;48.022;11.812;2023-06-10T01:32:14;0.30;;;0.20;;
15841;SDS011;8021;48.022;11.812;2023-06-10T01:34:44;0.30;;;0.20;;
15841;SDS011;8021;48.022;11.812;2023-06-10T01:37:13;0.20;;;0.20;;
15841;SDS011;8021;48.022;11.812;2023-06-10T01:39:43;0.30;;;0.30;;
15841;SDS011;8021;48.022;11.812;2023-06-10T01:42:10;0.20;;;0.20;;
15841;SDS011;8021;48.022;11.812;2023-06-10T01:44:39;0.22;;;0.20;;
15841;SDS011;8021;48.022;11.812;2023-06-10T01:47:07;0.20;;;0.20;;
15841;SDS011;8021;48.022;11.812;2023-06-10T01:49:35;0.20;;;0.20;;
15841;SDS011;8021;48.022;11.812;2023-06-10T01:52:02;0.20;;;0.20;;
15841;SDS011;8021;48.022;11.812;2023-06-10T01:54:33;0.30;;;0.20;;
15841;SDS011;8021;48.022;11.812;2023-06-10T01:57:01;0.20;;;0.20;;
15841;SDS011;8021;48.022;11.812;2023-06-10T01:59:29;0.22;;;0.20;;
15841;SDS011;8021;48.022;11.812;2023-06-10T02:01:57;0.28;;;0.28;;
15841;SDS011;8021;48.022;11.812;2023-06-10T02:04:24;0.30;;;0.20;;
15841;SDS011;8021;48.022;11.812;2023-06-10T02:06:51;0.30;;;0.30;;
15841;SDS011;8021;48.022;11.812;2023-06-10T02:09:19;0.20;;;0.20;;
15841;SDS011;8021;48.022;11.812;2023-06-10T02:11:48;0.30;;;0.20;;
15841;SDS011;8021;48.022;11.812;2023-06-10T02:14:16;0.20;;;0.20;;
15841;SDS011;8021;48.022;11.812;2023-06-10T02:16:43;0.25;;;0.25;;
15841;SDS011;8021;48.022;11.812;2023-06-10T02:19:13;0.20;;;0.20;;
15841;SDS011;8021;48.022;11.812;2023-06-10T02:21:41;0.30;;;0.20;;
15841;SDS011;8021;48.022;11.812;2023-06-10T02:24:08;0.20;;;0.20;;
15841;SDS011;8021;48.022;11.812;2023-06-10T02:26:36;0.20;;;0.20;;
15841;SDS011;8021;48.022;11.812;2023-06-10T02:29:05;0.20;;;0.20;;
15841;SDS011;8021;48.022;11.812;2023-06-10T02:31:33;0.30;;;0.20;;
15841;SDS011;8021;48.022;11.812;2023-06-10T02:34:02;0.20;;;0.20;;
15841;SDS011;8021;48.022;11.812;2023-06-10T02:36:30;0.20;;;0.20;;
15841;SDS011;8021;48.022;11.812;2023-06-10T02:38:58;0.20;;;0.20;;
15841;SDS011;8021;48.022;11.812;2023-06-10T02:41:26;0.20;;;0.20;;
15841;SDS011;8021;48.022;11.812;2023-06-10T02:43:55;0.30;;;0.20;;
15841;SDS011;8021;48.022;11.812;2023-06-10T02:46:24;0.20;;;0.20;;
15841;SDS011;8021;48.022;11.812;2023-06-10T02:48:53;0.20;;;0.20;;
15841;SDS011;8021;48.022;11.812;2023-06-10T02:51:23;0.20;;;0.20;;
15841;SDS011;8021;48.022;11.812;2023-06-10T02:53:56;0.20;;;0.20;;
15841;SDS011;8021;48.022;11.812;2023-06-10T02:56:24;0.20;;;0.20;;
15841;SDS011;8021;48.022;11.812;2023-06-10T02:58:53;0.25;;;0.25;;
15841;SDS011;8021;48.022;11.812;2023-06-10T03:01:24;0.20;;;0.20;;
15841;SDS011;8021;48.022;11.812;2023-06-10T03:03:59;0.20;;;0.20;;
15841;SDS011;8021;48.022;11.812;2023-06-10T03:06:27;0.20;;;0.20;;
15841;SDS011;8021;48.022;11.812;2023-06-10T03:09:05;0.30;;;0.30;;
15841;SDS011;8021;48.022;11.812;2023-06-10T03:11:33;0.20;;;0.20;;
15841;SDS011;8021;48.022;11.812;2023-06-10T03:14:01;0.22;;;0.20;;
15841;SDS011;8021;48.022;11.812;2023-06-10T03:16:32;0.20;;;0.20;;
15841;SDS011;8021;48.022;11.812;2023-06-10T03:19:00;0.30;;;0.28;;
15841;SDS011;8021;48.022;11.812;2023-06-10T03:21:28;0.20;;;0.20;;
15841;SDS011;8021;48.022;11.812;2023-06-10T03:23:57;0.25;;;0.20;;
15841;SDS011;8021;48.022;11.812;2023-06-10T03:26:25;0.30;;;0.20;;
15841;SDS011;8021;48.022;11.812;2023-06-10T03:28:54;0.20;;;0.20;;
15841;SDS011;8021;48.022;11.812;2023-06-10T03:31:23;0.30;;;0.20;;
15841;SDS011;8021;48.022;11.812;2023-06-10T03:33:55;0.30;;;0.20;;
15841;SDS011;8021;48.022;11.812;2023-06-10T03:36:22;0.20;;;0.20;;
15841;SDS011;8021;48.022;11.812;2023-06-10T03:38:50;0.25;;;0.20;;
15841;SDS011;8021;48.022;11.812;2023-06-10T03:41:18;0.30;;;0.20;;
15841;SDS011;8021;48.022;11.812;2023-06-10T03:43:46;0.20;;;0.20;;
15841;SDS011;8021;48.022;11.812;2023-06-10T03:46:14;0.20;;;0.20;;
15841;SDS011;8021;48.022;11.812;2023-06-10T03:48:41;0.20;;;0.20;;
15841;SDS011;8021;48.022;11.812;2023-06-10T03:51:11;0.20;;;0.20;;
15841;SDS011;8021;48.022;11.812;2023-06-10T03:53:38;0.20;;;0.20;;
15841;SDS011;8021;48.022;11.812;2023-06-10T03:56:06;0.20;;;0.20;;
15841;SDS011;8021;48.022;11.812;2023-06-10T03:58:33;0.17;;;0.17;;
15841;SDS011;8021;48.022;11.812;2023-06-10T04:01:01;0.13;;;0.13;;
15841;SDS011;8021;48.022;11.812;2023-06-10T04:03:33;0.20;;;0.20;;
15841;SDS011;8021;48.022;11.812;2023-06-10T04:06:01;0.10;;;0.10;;
15841;SDS011;8021;48.022;11.812;2023-06-10T04:08:30;0.10;;;0.10;;
15841;SDS011;8021;48.022;11.812;2023-06-10T04:10:59;0.10;;;0.10;;
15841;SDS011;8021;48.022;11.812;2023-06-10T04:13:27;0.10;;;0.10;;
15841;SDS011;8021;48.022;11.812;2023-06-10T04:15:57;0.10;;;0.10;;
15841;SDS011;8021;48.022;11.812;2023-06-10T04:18:26;0.10;;;0.10;;
15841;SDS011;8021;48.022;11.812;2023-06-10T04:20:57;0.10;;;0.10;;
15841;SDS011;8021;48.022;11.812;2023-06-10T04:23:25;0.10;;;0.10;;
15841;SDS011;8021;48.022;11.812;2023-06-10T04:25:54;0.10;;;0.10;;
15841;SDS011;8021;48.022;11.812;2023-06-10T04:28:23;0.10;;;0.10;;
15841;SDS011;8021;48.022;11.812;2023-06-10T04:30:50;0.10;;;0.10;;
15841;SDS011;8021;48.022;11.812;2023-06-10T04:33:18;0.00;;;0.00;;
15841;SDS011;8021;48.022;11.812;2023-06-10T04:35:45;0.00;;;0.00;;
15841;SDS011;8021;48.022;11.812;2023-06-10T04:38:15;0.00;;;0.00;;
15841;SDS011;8021;48.022;11.812;2023-06-10T04:40:43;0.10;;;0.03;;
15841;SDS011;8021;48.022;11.812;2023-06-10T04:43:14;0.00;;;0.00;;
15841;SDS011;8021;48.022;11.812;2023-06-10T04:45:44;0.00;;;0.00;;
15841;SDS011;8021;48.022;11.812;2023-06-10T04:48:12;0.00;;;0.00;;
15841;SDS011;8021;48.022;11.812;2023-06-10T04:50:40;0.00;;;0.00;;
15841;SDS011;8021;48.022;11.812;2023-06-10T04:53:07;0.00;;;0.00;;
15841;SDS011;8021;48.022;11.812;2023-06-10T04:55:37;0.00;;;0.00;;
15841;SDS011;8021;48.022;11.812;2023-06-10T04:58:05;0.00;;;0.00;;
15841;SDS011;8021;48.022;11.812;2023-06-10T05:00:34;0.00;;;0.00;;
15841;SDS011;8021;48.022;11.812;2023-06-10T05:03:01;0.10;;;0.00;;
15841;SDS011;8021;48.022;11.812;2023-06-10T05:05:29;0.00;;;0.00;;
15841;SDS011;8021;48.022;11.812;2023-06-10T05:07:56;0.00;;;0.00;;
15841;SDS011;8021;48.022;11.812;2023-06-10T05:10:24;0.00;;;0.00;;
15841;SDS011;8021;48.022;11.812;2023-06-10T05:12:52;0.00;;;0.00;;
15841;SDS011;8021;48.022;11.812;2023-06-10T05:15:19;0.00;;;0.00;;
15841;SDS011;8021;48.022;11.812;2023-06-10T05:17:48;0.00;;;0.00;;
15841;SDS011;8021;48.022;11.812;2023-06-10T05:20:16;0.00;;;0.00;;
15841;SDS011;8021;48.022;11.812;2023-06-10T05:22:44;0.00;;;0.00;;
15841;SDS011;8021;48.022;11.812;2023-06-10T05:25:12;0.00;;;0.00;;
15841;SDS011;8021;48.022;11.812;2023-06-10T05:27:40;0.00;;;0.00;;
15841;SDS011;8021;48.022;11.812;2023-06-10T05:30:09;0.00;;;0.00;;
15841;SDS011;8021;48.022;11.812;2023-06-10T05:32:37;0.00;;;0.00;;
15841;SDS011;8021;48.022;11.812;2023-06-10T05:35:06;0.00;;;0.00;;
15841;SDS011;8021;48.022;11.812;2023-06-10T05:37:34;0.00;;;0.00;;
15841;SDS011;8021;48.022;11.812;2023-06-10T05:40:03;0.00;;;0.00;;
15841;SDS011;8021;48.022;11.812;2023-06-10T05:42:31;0.00;;;0.00;;
15841;SDS011;8021;48.022;11.812;2023-06-10T05:44:59;0.00;;;0.00;;
15841;SDS011;8021;48.022;11.812;2023-06-10T05:47:27;0.00;;;0.00;;
15841;SDS011;8021;48.022;11.812;2023-06-10T05:49:55;0.00;;;0.00;;
15841;SDS011;8021;48.022;11.812;2023-06-10T05:52:24;0.00;;;0.00;;
15841;SDS011;8021;48.022;11.812;2023-06-10T05:54:52;0.00;;;0.00;;
15841;SDS011;8021;48.022;11.812;2023-06-10T05:57:20;0.00;;;0.00;;
15841;SDS011;8021;48.022;11.812;2023-06-10T05:59:48;0.00;;;0.00;;
15841;SDS011;8021;48.022;11.812;2023-06-10T06:02:15;0.00;;;0.00;;
15841;SDS011;8021;48.022;11.812;2023-06-10T06:04:43;0.00;;;0.00;;
15841;SDS011;8021;48.022;11.812;2023-06-10T06:07:10;0.00;;;0.00;;
15841;SDS011;8021;48.022;11.812;2023-06-10T06:09:39;0.00;;;0.00;;
15841;SDS011;8021;48.022;11.812;2023-06-10T06:12:07;0.00;;;0.00;;
15841;SDS011;8021;48.022;11.812;2023-06-10T06:14:36;0.00;;;0.00;;
15841;SDS011;8021;48.022;11.812;2023-06-10T06:17:04;0.00;;;0.00;;
15841;SDS011;8021;48.022;11.812;2023-06-10T06:19:32;0.00;;;0.00;;
15841;SDS011;8021;48.022;11.812;2023-06-10T06:22:00;0.00;;;0.00;;
15841;SDS011;8021;48.022;11.812;2023-06-10T06:24:27;0.00;;;0.00;;
15841;SDS011;8021;48.022;11.812;2023-06-10T06:26:56;0.00;;;0.00;;
15841;SDS011;8021;48.022;11.812;2023-06-10T06:29:24;0.00;;;0.00;;
15841;SDS011;8021;48.022;11.812;2023-06-10T06:31:52;0.00;;;0.00;;
15841;SDS011;8021;48.022;11.812;2023-06-10T06:34:19;0.00;;;0.00;;
15841;SDS011;8021;48.022;11.812;2023-06-10T06:36:47;0.00;;;0.00;;
15841;SDS011;8021;48.022;11.812;2023-06-10T06:39:15;0.00;;;0.00;;
15841;SDS011;8021;48.022;11.812;2023-06-10T06:41:44;0.00;;;0.00;;
15841;SDS011;8021;48.022;11.812;2023-06-10T06:44:13;0.00;;;0.00;;
15841;SDS011;8021;48.022;11.812;2023-06-10T06:46:43;0.00;;;0.00;;
15841;SDS011;8021;48.022;11.812;2023-06-10T06:49:10;0.00;;;0.00;;
15841;SDS011;8021;48.022;11.812;2023-06-10T06:51:38;0.00;;;0.00;;
15841;SDS011;8021;48.022;11.812;2023-06-10T06:54:05;0.00;;;0.00;;
15841;SDS011;8021;48.022;11.812;2023-06-10T06:56:33;0.00;;;0.00;;
15841;SDS011;8021;48.022;11.812;2023-06-10T06:59:00;0.00;;;0.00;;
15841;SDS011;8021;48.022;11.812;2023-06-10T07:01:29;0.00;;;0.00;;
15841;SDS011;8021;48.022;11.812;2023-06-10T07:03:57;0.00;;;0.00;;
15841;SDS011;8021;48.022;11.812;2023-06-10T07:06:25;0.00;;;0.00;;
15841;SDS011;8021;48.022;11.812;2023-06-10T07:08:52;0.00;;;0.00;;
15841;SDS011;8021;48.022;11.812;2023-06-10T07:11:20;0.00;;;0.00;;
15841;SDS011;8021;48.022;11.812;2023-06-10T07:13:48;0.00;;;0.00;;
15841;SDS011;8021;48.022;11.812;2023-06-10T07:16:15;0.00;;;0.00;;
15841;SDS011;8021;48.022;11.812;2023-06-10T07:18:44;0.00;;;0.00;;
15841;SDS011;8021;48.022;11.812;2023-06-10T07:21:12;0.00;;;0.00;;
15841;SDS011;8021;48.022;11.812;2023-06-10T07:23:41;0.00;;;0.00;;
15841;SDS011;8021;48.022;11.812;2023-06-10T07:26:09;0.00;;;0.00;;
15841;SDS011;8021;48.022;11.812;2023-06-10T07:28:37;0.00;;;0.00;;
15841;SDS011;8021;48.022;11.812;2023-06-10T07:31:05;0.00;;;0.00;;
15841;SDS011;8021;48.022;11.812;2023-06-10T07:33:32;0.00;;;0.00;;
15841;SDS011;8021;48.022;11.812;2023-06-10T07:36:01;0.00;;;0.00;;
15841;SDS011;8021;48.022;11.812;2023-06-10T07:38:28;0.00;;;0.00;;
15841;SDS011;8021;48.022;11.812;2023-06-10T07:40:56;0.00;;;0.00;;
15841;SDS011;8021;48.022;11.812;2023-06-10T07:43:24;0.00;;;0.00;;
15841;SDS011;8021;48.022;11.812;2023-06-10T07:45:51;0.00;;;0.00;;
15841;SDS011;8021;48.022;11.812;2023-06-10T07:48:19;0.00;;;0.00;;
15841;SDS011;8021;48.022;11.812;2023-06-10T07:50:46;0.00;;;0.00;;
15841;SDS011;8021;48.022;11.812;2023-06-10T07:53:15;0.00;;;0.00;;
15841;SDS011;8021;48.022;11.812;2023-06-10T07:55:42;0.00;;;0.00;;
15841;SDS011;8021;48.022;11.812;2023-06-10T07:58:10;0.00;;;0.00;;
15841;SDS011;8021;48.022;11.812;2023-06-10T08:00:38;0.00;;;0.00;;
15841;SDS011;8021;48.022;11.812;2023-06-10T08:03:05;0.00;;;0.00;;
15841;SDS011;8021;48.022;11.812;2023-06-10T08:05:33;0.00;;;0.00;;
15841;SDS011;8021;48.022;11.812;2023-06-10T08:08:00;0.00;;;0.00;;
15841;SDS011;8021;48.022;11.812;2023-06-10T08:10:30;0.00;;;0.00;;
15841;SDS011;8021;48.022;11.812;2023-06-10T08:12:58;0.00;;;0.00;;
15841;SDS011;8021;48.022;11.812;2023-06-10T08:15:26;0.00;;;0.00;;
15841;SDS011;8021;48.022;11.812;2023-06-10T08:17:53;0.00;;;0.00;;
15841;SDS011;8021;48.022;11.812;2023-06-10T08:20:22;0.00;;;0.00;;
15841;SDS011;8021;48.022;11.812;2023-06-10T08:22:50;0.00;;;0.00;;
15841;SDS011;8021;48.022;11.812;2023-06-10T08:25:18;0.00;;;0.00;;
15841;SDS011;8021;48.022;11.812;2023-06-10T08:27:47;0.00;;;0.00;;
15841;SDS011;8021;48.022;11.812;2023-06-10T08:30:14;0.00;;;0.00;;
15841;SDS011;8021;48.022;11.812;2023-06-10T08:32:42;0.00;;;0.00;;
15841;SDS011;8021;48.022;11.812;2023-06-10T08:35:10;0.00;;;0.00;;
15841;SDS011;8021;48.022;11.812;2023-06-10T08:37:37;0.00;;;0.00;;
15841;SDS011;8021;48.022;11.812;2023-06-10T08:40:06;0.00;;;0.00;;
15841;SDS011;8021;48.022;11.812;2023-06-10T08:42:34;0.00;;;0.00;;
15841;SDS011;8021;48.022;11.812;2023-06-10T08:45:05;0.00;;;0.00;;
15841;SDS011;8021;48.022;11.812;2023-06-10T08:47:35;0.00;;;0.00;;
15841;SDS011;8021;48.022;11.812;2023-06-10T08:50:05;0.00;;;0.00;;
15841;SDS011;8021;48.022;11.812;2023-06-10T08:52:38;0.00;;;0.00;;
15841;SDS011;8021;48.022;11.812;2023-06-10T08:55:09;0.00;;;0.00;;
15841;SDS011;8021;48.022;11.812;2023-06-10T08:57:37;0.00;;;0.00;;
15841;SDS011;8021;48.022;11.812;2023-06-10T09:00:07;0.00;;;0.00;;
15841;SDS011;8021;48.022;11.812;2023-06-10T09:02:35;0.00;;;0.00;;
15841;SDS011;8021;48.022;11.812;2023-06-10T09:05:03;0.00;;;0.00;;
15841;SDS011;8021;48.022;11.812;2023-06-10T09:07:31;0.00;;;0.00;;
15841;SDS011;8021;48.022;11.812;2023-06-10T09:10:01;0.00;;;0.00;;
15841;SDS011;8021;48.022;11.812;2023-06-10T09:12:33;0.00;;;0.00;;
15841;SDS011;8021;48.022;11.812;2023-06-10T09:15:01;0.00;;;0.00;;
15841;SDS011;8021;48.022;11.812;2023-06-10T09:17:30;0.00;;;0.00;;
15841;SDS011;8021;48.022;11.812;2023-06-10T09:19:59;0.00;;;0.00;;
15841;SDS011;8021;48.022;11.812;2023-06-10T09:22:28;0.00;;;0.00;;
15841;SDS011;8021;48.022;11.812;2023-06-10T09:25:02;0.00;;;0.00;;
15841;SDS011;8021;48.022;11.812;2023-06-10T09:27:31;0.00;;;0.00;;
15841;SDS011;8021;48.022;11.812;2023-06-10T09:29:59;0.00;;;0.00;;
15841;SDS011;8021;48.022;11.812;2023-06-10T09:32:27;0.10;;;0.05;;
15841;SDS011;8021;48.022;11.812;2023-06-10T09:34:57;0.03;;;0.00;;
15841;SDS011;8021;48.022;11.812;2023-06-10T09:37:24;0.10;;;0.10;;
15841;SDS011;8021;48.022;11.812;2023-06-10T09:40:02;0.10;;;0.10;;
15841;SDS011;8021;48.022;11.812;2023-06-10T09:42:32;0.10;;;0.10;;
15841;SDS011;8021;48.022;11.812;2023-06-10T09:44:59;0.10;;;0.10;;
15841;SDS011;8021;48.022;11.812;2023-06-10T09:47:27;0.10;;;0.10;;
15841;SDS011;8021;48.022;11.812;2023-06-10T09:49:56;0.10;;;0.10;;
15841;SDS011;8021;48.022;11.812;2023-06-10T09:52:24;0.10;;;0.10;;
15841;SDS011;8021;48.022;11.812;2023-06-10T09:54:52;0.10;;;0.10;;
15841;SDS011;8021;48.022;11.812;2023-06-10T09:57:19;0.10;;;0.10;;
15841;SDS011;8021;48.022;11.812;2023-06-10T09:59:47;0.10;;;0.10;;
15841;SDS011;8021;48.022;11.812;2023-06-10T10:02:15;0.00;;;0.00;;
15841;SDS011;8021;48.022;11.812;2023-06-10T10:04:43;0.05;;;0.05;;
15841;SDS011;8021;48.022;11.812;2023-06-10T10:07:12;0.00;;;0.00;;
15841;SDS011;8021;48.022;11.812;2023-06-10T10:09:40;0.10;;;0.10;;
15841;SDS011;8021;48.022;11.812;2023-06-10T10:12:09;0.05;;;0.05;;
15841;SDS011;8021;48.022;11.812;2023-06-10T10:14:37;0.00;;;0.00;;
15841;SDS011;8021;48.022;11.812;2023-06-10T10:17:07;0.10;;;0.10;;
15841;SDS011;8021;48.022;11.812;2023-06-10T10:19:37;0.10;;;0.10;;
15841;SDS011;8021;48.022;11.812;2023-06-10T10:22:11;0.10;;;0.10;;
15841;SDS011;8021;48.022;11.812;2023-06-10T10:24:45;0.10;;;0.10;;
15841;SDS011;8021;48.022;11.812;2023-06-10T10:27:15;0.00;;;0.00;;
15841;SDS011;8021;48.022;11.812;2023-06-10T10:29:45;0.10;;;0.10;;
15841;SDS011;8021;48.022;11.812;2023-06-10T10:32:13;0.10;;;0.00;;
15841;SDS011;8021;48.022;11.812;2023-06-10T10:34:43;0.10;;;0.10;;
15841;SDS011;8021;48.022;11.812;2023-06-10T10:37:12;0.10;;;0.10;;
15841;SDS011;8021;48.022;11.812;2023-06-10T10:39:40;0.10;;;0.10;;
15841;SDS011;8021;48.022;11.812;2023-06-10T10:42:09;0.10;;;0.10;;
15841;SDS011;8021;48.022;11.812;2023-06-10T10:44:37;0.10;;;0.10;;
15841;SDS011;8021;48.022;11.812;2023-06-10T10:47:05;0.10;;;0.10;;
15841;SDS011;8021;48.022;11.812;2023-06-10T10:49:35;0.10;;;0.10;;
15841;SDS011;8021;48.022;11.812;2023-06-10T10:52:04;0.10;;;0.10;;
15841;SDS011;8021;48.022;11.812;2023-06-10T10:54:33;0.10;;;0.10;;
15841;SDS011;8021;48.022;11.812;2023-06-10T10:57:12;0.10;;;0.10;;
15841;SDS011;8021;48.022;11.812;2023-06-10T10:59:44;0.10;;;0.10;;
15841;SDS011;8021;48.022;11.812;2023-06-10T11:02:15;0.10;;;0.10;;
15841;SDS011;8021;48.022;11.812;2023-06-10T11:04:46;0.10;;;0.10;;
15841;SDS011;8021;48.022;11.812;2023-06-10T11:07:14;0.10;;;0.10;;
15841;SDS011;8021;48.022;11.812;2023-06-10T11:09:57;0.10;;;0.10;;
15841;SDS011;8021;48.022;11.812;2023-06-10T11:12:26;0.10;;;0.10;;
15841;SDS011;8021;48.022;11.812;2023-06-10T11:14:53;0.10;;;0.10;;
15841;SDS011;8021;48.022;11.812;2023-06-10T11:17:21;0.03;;;0.03;;
15841;SDS011;8021;48.022;11.812;2023-06-10T11:19:51;0.00;;;0.00;;
15841;SDS011;8021;48.022;11.812;2023-06-10T11:22:18;0.03;;;0.00;;
15841;SDS011;8021;48.022;11.812;2023-06-10T11:24:49;0.10;;;0.10;;
15841;SDS011;8021;48.022;11.812;2023-06-10T11:27:20;0.10;;;0.10;;
15841;SDS011;8021;48.022;11.812;2023-06-10T11:29:56;0.10;;;0.10;;
15841;SDS011;8021;48.022;11.812;2023-06-10T11:32:24;0.10;;;0.10;;
15841;SDS011;8021;48.022;11.812;2023-06-10T11:34:53;0.00;;;0.00;;
15841;SDS011;8021;48.022;11.812;2023-06-10T11:37:21;0.10;;;0.10;;
15841;SDS011;8021;48.022;11.812;2023-06-10T11:39:51;0.00;;;0.00;;
15841;SDS011;8021;48.022;11.812;2023-06-10T11:42:18;0.05;;;0.05;;
15841;SDS011;8021;48.022;11.812;2023-06-10T11:44:49;0.00;;;0.00;;
15841;SDS011;8021;48.022;11.812;2023-06-10T11:47:19;0.00;;;0.00;;
15841;SDS011;8021;48.022;11.812;2023-06-10T11:49:55;0.00;;;0.00;;
15841;SDS011;8021;48.022;11.812;2023-06-10T11:52:25;0.10;;;0.10;;
15841;SDS011;8021;48.022;11.812;2023-06-10T11:54:53;0.10;;;0.10;;
15841;SDS011;8021;48.022;11.812;2023-06-10T11:57:21;0.10;;;0.10;;
15841;SDS011;8021;48.022;11.812;2023-06-10T11:59:48;0.00;;;0.00;;
15841;SDS011;8021;48.022;11.812;2023-06-10T12:02:16;0.10;;;0.10;;
15841;SDS011;8021;48.022;11.812;2023-06-10T12:04:45;0.00;;;0.00;;
15841;SDS011;8021;48.022;11.812;2023-06-10T12:07:16;0.10;;;0.10;;
15841;SDS011;8021;48.022;11.812;2023-06-10T12:09:44;0.03;;;0.03;;
15841;SDS011;8021;48.022;11.812;2023-06-10T12:12:11;0.00;;;0.00;;
15841;SDS011;8021;48.022;11.812;2023-06-10T12:14:52;0.00;;;0.00;;
15841;SDS011;8021;48.022;11.812;2023-06-10T12:17:34;0.00;;;0.00;;
15841;SDS011;8021;48.022;11.812;2023-06-10T12:20:05;0.03;;;0.00;;
15841;SDS011;8021;48.022;11.812;2023-06-10T12:22:37;0.00;;;0.00;;
15841;SDS011;8021;48.022;11.812;2023-06-10T12:25:05;0.00;;;0.00;;
15841;SDS011;8021;48.022;11.812;2023-06-10T12:27:34;0.10;;;0.00;;
15841;SDS011;8021;48.022;11.812;2023-06-10T12:30:02;0.00;;;0.00;;
15841;SDS011;8021;48.022;11.812;2023-06-10T12:32:38;0.00;;;0.00;;
15841;SDS011;8021;48.022;11.812;2023-06-10T12:35:07;0.00;;;0.00;;
15841;SDS011;8021;48.022;11.812;2023-06-10T12:37:35;0.00;;;0.00;;
15841;SDS011;8021;48.022;11.812;2023-06-10T12:40:08;0.00;;;0.00;;
15841;SDS011;8021;48.022;11.812;2023-06-10T12:42:36;0.10;;;0.08;;
15841;SDS011;8021;48.022;11.812;2023-06-10T12:45:04;0.10;;;0.10;;
15841;SDS011;8021;48.022;11.812;2023-06-10T12:47:35;0.00;;;0.00;;
15841;SDS011;8021;48.022;11.812;2023-06-10T12:50:06;0.00;;;0.00;;
15841;SDS011;8021;48.022;11.812;2023-06-10T12:52:34;0.00;;;0.00;;
15841;SDS011;8021;48.022;11.812;2023-06-10T12:55:02;0.00;;;0.00;;
15841;SDS011;8021;48.022;11.812;2023-06-10T12:57:30;0.00;;;0.00;;
15841;SDS011;8021;48.022;11.812;2023-06-10T12:59:58;0.00;;;0.00;;
15841;SDS011;8021;48.022;11.812;2023-06-10T13:02:30;0.00;;;0.00;;
15841;SDS011;8021;48.022;11.812;2023-06-10T13:04:58;0.10;;;0.10;;
15841;SDS011;8021;48.022;11.812;2023-06-10T13:07:27;0.05;;;0.05;;
15841;SDS011;8021;48.022;11.812;2023-06-10T13:09:56;0.03;;;0.03;;
15841;SDS011;8021;48.022;11.812;2023-06-10T13:12:25;0.10;;;0.10;;
15841;SDS011;8021;48.022;11.812;2023-06-10T13:15:11;0.10;;;0.10;;
15841;SDS011;8021;48.022;11.812;2023-06-10T13:17:39;0.10;;;0.10;;
15841;SDS011;8021;48.022;11.812;2023-06-10T13:20:07;0.10;;;0.10;;
15841;SDS011;8021;48.022;11.812;2023-06-10T13:22:36;0.10;;;0.10;;
15841;SDS011;8021;48.022;11.812;2023-06-10T13:25:04;0.00;;;0.00;;
15841;SDS011;8021;48.022;11.812;2023-06-10T13:27:33;0.10;;;0.10;;
15841;SDS011;8021;48.022;11.812;2023-06-10T13:30:01;0.10;;;0.10;;
15841;SDS011;8021;48.022;11.812;2023-06-10T13:32:28;0.10;;;0.10;;
15841;SDS011;8021;48.022;11.812;2023-06-10T13:34:56;0.00;;;0.00;;
15841;SDS011;8021;48.022;11.812;2023-06-10T13:37:26;0.00;;;0.00;;
15841;SDS011;8021;48.022;11.812;2023-06-10T13:39:55;0.10;;;0.10;;
15841;SDS011;8021;48.022;11.812;2023-06-10T13:42:22;0.10;;;0.10;;
15841;SDS011;8021;48.022;11.812;2023-06-10T13:44:52;0.10;;;0.10;;
15841;SDS011;8021;48.022;11.812;2023-06-10T13:47:20;0.10;;;0.10;;
15841;SDS011;8021;48.022;11.812;2023-06-10T13:49:48;0.10;;;0.10;;
15841;SDS011;8021;48.022;11.812;2023-06-10T13:52:15;0.00;;;0.00;;
15841;SDS011;8021;48.022;11.812;2023-06-10T13:54:44;0.10;;;0.10;;
15841;SDS011;8021;48.022;11.812;2023-06-10T13:57:13;0.10;;;0.10;;
15841;SDS011;8021;48.022;11.812;2023-06-10T13:59:40;0.10;;;0.10;;
15841;SDS011;8021;48.022;11.812;2023-06-10T14:02:08;0.00;;;0.00;;
15841;SDS011;8021;48.022;11.812;2023-06-10T14:04:35;0.00;;;0.00;;
15841;SDS011;8021;48.022;11.812;2023-06-10T14:07:03;0.05;;;0.05;;
15841;SDS011;8021;48.022;11.812;2023-06-10T14:09:31;0.10;;;0.10;;
15841;SDS011;8021;48.022;11.812;2023-06-10T14:11:58;0.10;;;0.10;;
15841;SDS011;8021;48.022;11.812;2023-06-10T14:14:27;0.10;;;0.10;;
15841;SDS011;8021;48.022;11.812;2023-06-10T14:16:55;0.00;;;0.00;;
15841;SDS011;8021;48.022;11.812;2023-06-10T14:19:22;0.10;;;0.10;;
15841;SDS011;8021;48.022;11.812;2023-06-10T14:21:53;0.10;;;0.10;;
15841;SDS011;8021;48.022;11.812;2023-06-10T14:24:21;0.10;;;0.10;;
15841;SDS011;8021;48.022;11.812;2023-06-10T14:26:49;0.00;;;0.00;;
15841;SDS011;8021;48.022;11.812;2023-06-10T14:29:17;0.10;;;0.10;;
15841;SDS011;8021;48.022;11.812;2023-06-10T14:31:46;0.10;;;0.10;;
15841;SDS011;8021;48.022;11.812;2023-06-10T14:34:14;0.10;;;0.10;;
15841;SDS011;8021;48.022;11.812;2023-06-10T14:36:41;0.05;;;0.05;;
15841;SDS011;8021;48.022;11.812;2023-06-10T14:39:09;0.10;;;0.10;;
15841;SDS011;8021;48.022;11.812;2023-06-10T14:41:37;0.10;;;0.10;;
15841;SDS011;8021;48.022;11.812;2023-06-10T14:44:04;0.10;;;0.10;;
15841;SDS011;8021;48.022;11.812;2023-06-10T14:46:32;0.10;;;0.10;;
15841;SDS011;8021;48.022;11.812;2023-06-10T14:49:01;0.10;;;0.10;;
15841;SDS011;8021;48.022;11.812;2023-06-10T14:51:28;0.10;;;0.10;;
15841;SDS011;8021;48.022;11.812;2023-06-10T14:53:58;0.08;;;0.08;;
15841;SDS011;8021;48.022;11.812;2023-06-10T14:56:25;0.00;;;0.00;;